Time;durP1;ratioP1;P1;durP2;ratioP2;P2;SDS_P1;SDS_P2;PMS_P1;PMS_P2;Temp;Humidity;BMP_temperature;BMP_pressure;BME280_temperature;BME280_humidity;BME280_pressure;Samples;Min_cycle;Max_cycle;Signal;HPM_P1;HPM_P2
2022/03/04 00:01:20;;;;;;;41.37;16.13;;;-2.60;37.40;;;;;;5036607;28;46386;-69
2022/03/04 00:03:46;;;;;;;30.13;12.47;;;-2.60;37.50;;;;;;5034452;28;46542;-66
2022/03/04 00:06:11;;;;;;;26.27;11.27;;;-2.70;37.60;;;;;;5031686;28;46295;-65
2022/03/04 00:08:37;;;;;;;20.57;9.90;;;-2.70;37.60;;;;;;5034290;28;46422;-65
2022/03/04 00:11:04;;;;;;;16.65;8.80;;;-2.70;37.70;;;;;;5031522;28;46397;-66
2022/03/04 00:13:30;;;;;;;16.98;9.02;;;-2.70;37.90;;;;;;5027527;28;47167;-65
2022/03/04 00:15:56;;;;;;;19.45;9.27;;;-2.80;37.90;;;;;;5026891;28;46358;-66
2022/03/04 00:18:22;;;;;;;16.35;8.43;;;-2.80;38.10;;;;;;5026677;28;46323;-65
2022/03/04 00:20:48;;;;;;;15.87;7.57;;;-2.80;38.20;;;;;;5024886;28;46459;-66
2022/03/04 00:23:14;;;;;;;15.97;7.70;;;-2.90;38.40;;;;;;5023163;28;46530;-67
2022/03/04 00:25:40;;;;;;;15.73;8.80;;;-2.90;38.30;;;;;;5020261;28;46300;-66
2022/03/04 00:28:06;;;;;;;17.47;8.67;;;-2.90;38.40;;;;;;5035644;28;46358;-69
2022/03/04 00:30:31;;;;;;;15.40;8.57;;;-2.90;38.50;;;;;;5037921;28;45967;-65
2022/03/04 00:32:57;;;;;;;16.00;9.30;;;-2.90;38.50;;;;;;5033960;28;46974;-66
2022/03/04 00:35:24;;;;;;;28.00;11.30;;;-2.90;38.40;;;;;;5033654;28;46323;-66
2022/03/04 00:37:50;;;;;;;21.65;9.70;;;-2.90;38.40;;;;;;5034390;28;46380;-65
2022/03/04 00:40:16;;;;;;;18.98;9.68;;;-2.90;38.50;;;;;;5036867;28;46454;-64
2022/03/04 00:42:42;;;;;;;23.55;9.77;;;-2.90;38.50;;;;;;5032195;28;46693;-67
2022/03/04 00:45:08;;;;;;;18.73;8.60;;;-2.90;38.60;;;;;;5031382;28;46541;-66
2022/03/04 00:47:34;;;;;;;19.45;9.40;;;-2.90;38.70;;;;;;5033065;28;45873;-64
2022/03/04 00:50:01;;;;;;;18.40;9.27;;;-2.90;38.80;;;;;;5037571;28;46379;-66
2022/03/04 00:52:27;;;;;;;18.10;9.57;;;-3.00;38.80;;;;;;5028370;28;46448;-65
2022/03/04 00:54:52;;;;;;;15.00;9.13;;;-3.00;38.90;;;;;;5035633;28;46461;-65
2022/03/04 00:57:18;;;;;;;22.37;9.77;;;-3.00;39.10;;;;;;5031581;28;46240;-67
2022/03/04 00:59:43;;;;;;;18.43;8.90;;;-3.10;39.00;;;;;;5033801;28;46655;-66
2022/03/04 01:02:09;;;;;;;16.10;8.07;;;-3.10;39.10;;;;;;5031727;28;46976;-65
2022/03/04 01:04:35;;;;;;;18.43;8.80;;;-3.10;39.10;;;;;;5033970;28;46445;-64
2022/03/04 01:07:00;;;;;;;16.53;8.57;;;-3.10;39.20;;;;;;5031372;28;46283;-64
2022/03/04 01:09:26;;;;;;;16.47;8.70;;;-3.10;39.30;;;;;;5034904;28;46823;-64
2022/03/04 01:11:52;;;;;;;17.63;8.83;;;-3.20;39.40;;;;;;5034864;28;46990;-65
2022/03/04 01:14:17;;;;;;;18.93;8.53;;;-3.20;39.40;;;;;;5037885;28;46577;-66
2022/03/04 01:16:43;;;;;;;21.90;8.83;;;-3.20;39.40;;;;;;5033679;28;46377;-66
2022/03/04 01:19:09;;;;;;;20.20;9.87;;;-3.20;39.30;;;;;;5033997;28;46304;-67
2022/03/04 01:21:34;;;;;;;18.40;8.83;;;-3.10;39.40;;;;;;5032656;28;46420;-64
2022/03/04 01:24:00;;;;;;;18.43;9.17;;;-3.20;39.40;;;;;;5033723;28;46423;-65
2022/03/04 01:26:26;;;;;;;18.33;9.37;;;-3.20;39.40;;;;;;5033634;28;46259;-64
2022/03/04 01:28:53;;;;;;;22.60;10.35;;;-3.20;40.50;;;;;;5030446;28;46373;-68
2022/03/04 01:31:21;;;;;;;22.05;9.65;;;-3.20;39.50;;;;;;5026570;28;47354;-65
2022/03/04 01:33:46;;;;;;;15.15;8.48;;;-3.10;39.40;;;;;;5035759;28;46406;-67
2022/03/04 01:36:12;;;;;;;12.90;7.87;;;-3.20;39.50;;;;;;5032768;28;46429;-67
2022/03/04 01:38:38;;;;;;;13.47;8.00;;;-3.30;39.70;;;;;;5035039;28;46450;-67
2022/03/04 01:41:03;;;;;;;16.77;8.60;;;-3.40;40.00;;;;;;5035611;28;46440;-64
2022/03/04 01:43:29;;;;;;;17.30;9.07;;;-3.50;40.30;;;;;;5033852;28;46339;-70
2022/03/04 01:45:54;;;;;;;23.03;9.30;;;-3.50;40.60;;;;;;5034619;28;46442;-66
2022/03/04 01:48:21;;;;;;;14.37;7.97;;;-3.60;40.80;;;;;;5033836;28;45814;-67
2022/03/04 01:50:49;;;;;;;17.23;7.50;;;-3.60;40.90;;;;;;5034082;28;46431;-65
2022/03/04 01:53:15;;;;;;;19.15;8.80;;;-3.60;40.90;;;;;;5033415;28;46497;-65
2022/03/04 01:55:41;;;;;;;21.42;8.95;;;-3.60;41.00;;;;;;5032296;28;46485;-68
2022/03/04 01:58:07;;;;;;;15.13;7.93;;;-3.60;40.90;;;;;;5029237;28;46363;-66
2022/03/04 02:00:32;;;;;;;14.50;8.50;;;-3.70;40.90;;;;;;5033947;28;47746;-67
2022/03/04 02:02:59;;;;;;;16.07;8.73;;;-3.60;41.00;;;;;;5033989;28;46355;-66
2022/03/04 02:05:26;;;;;;;16.75;8.93;;;-3.60;40.90;;;;;;5031546;28;46445;-66
2022/03/04 02:07:51;;;;;;;22.35;10.55;;;-3.70;40.90;;;;;;5034216;28;46347;-66
2022/03/04 02:10:17;;;;;;;20.90;10.17;;;-3.60;41.00;;;;;;5034180;28;46340;-68
2022/03/04 02:12:43;;;;;;;20.50;10.33;;;-3.60;41.00;;;;;;5032591;28;46389;-67
2022/03/04 02:15:09;;;;;;;23.37;10.40;;;-3.60;40.90;;;;;;5028917;28;46310;-66
2022/03/04 02:17:35;;;;;;;20.87;11.00;;;-3.50;41.10;;;;;;5028833;28;46286;-66
2022/03/04 02:20:03;;;;;;;22.20;10.15;;;-3.50;41.10;;;;;;5032671;28;46041;-65
2022/03/04 02:22:29;;;;;;;23.45;10.85;;;-3.50;41.10;;;;;;5034639;28;45999;-67
2022/03/04 02:24:55;;;;;;;20.42;10.45;;;-3.50;41.00;;;;;;5032286;28;46647;-64
2022/03/04 02:27:20;;;;;;;23.13;10.87;;;-3.50;41.10;;;;;;5033061;28;46651;-65
2022/03/04 02:29:46;;;;;;;18.27;9.80;;;-3.50;41.10;;;;;;5029538;28;47291;-68
2022/03/04 02:32:12;;;;;;;17.67;10.50;;;-3.50;42.30;;;;;;5031867;28;46568;-68
2022/03/04 02:34:37;;;;;;;21.00;9.27;;;-3.60;41.00;;;;;;5030666;28;46394;-67
2022/03/04 02:37:03;;;;;;;18.90;8.63;;;-3.60;41.00;;;;;;5027424;28;46640;-67
2022/03/04 02:39:29;;;;;;;15.38;8.50;;;-3.70;40.80;;;;;;5027712;28;46412;-66
2022/03/04 02:41:54;;;;;;;17.70;9.50;;;-3.80;40.80;;;;;;5030974;28;46504;-65
2022/03/04 02:44:20;;;;;;;16.30;7.93;;;-3.80;40.70;;;;;;5023894;28;46980;-66
2022/03/04 02:46:46;;;;;;;15.00;8.53;;;-3.90;40.70;;;;;;5032890;28;46445;-66
2022/03/04 02:49:12;;;;;;;16.55;8.48;;;-3.90;40.70;;;;;;5035758;28;46424;-64
2022/03/04 02:51:38;;;;;;;15.13;8.27;;;-4.00;40.60;;;;;;5035381;28;46430;-66
2022/03/04 02:54:04;;;;;;;18.30;8.07;;;-4.00;40.70;;;;;;5034525;28;46358;-67
2022/03/04 02:56:30;;;;;;;20.50;9.00;;;-4.00;41.20;;;;;;5034689;28;46629;-66
2022/03/04 02:58:56;;;;;;;18.47;7.63;;;-4.10;41.30;;;;;;5025611;28;46285;-66
2022/03/04 03:01:21;;;;;;;16.40;8.50;;;-4.10;41.40;;;;;;5027819;28;45839;-67
2022/03/04 03:03:47;;;;;;;19.17;9.37;;;-4.20;41.50;;;;;;5030918;28;46680;-66
2022/03/04 03:06:13;;;;;;;17.60;8.27;;;-4.20;42.70;;;;;;5026129;28;46354;-66
2022/03/04 03:08:38;;;;;;;19.63;10.10;;;-4.20;41.60;;;;;;5023492;28;46278;-68
2022/03/04 03:11:04;;;;;;;15.20;8.17;;;-4.20;41.50;;;;;;5027366;28;46395;-66
2022/03/04 03:13:31;;;;;;;18.33;9.27;;;-4.20;41.60;;;;;;5031483;28;46846;-66
2022/03/04 03:15:56;;;;;;;18.40;9.23;;;-4.20;41.60;;;;;;5027126;28;46586;-67
2022/03/04 03:18:22;;;;;;;15.83;9.20;;;-4.20;41.60;;;;;;5030569;28;46405;-67
2022/03/04 03:20:48;;;;;;;19.00;9.30;;;-4.20;41.50;;;;;;5025533;28;45959;-67
2022/03/04 03:23:14;;;;;;;19.33;9.13;;;-4.20;41.50;;;;;;5026130;28;46466;-67
2022/03/04 03:25:39;;;;;;;15.90;9.33;;;-4.20;41.60;;;;;;5027665;28;46774;-66
2022/03/04 03:28:05;;;;;;;22.23;9.83;;;-4.20;41.60;;;;;;5036613;28;46480;-67
2022/03/04 03:30:31;;;;;;;23.50;9.53;;;-4.20;41.60;;;;;;5027954;28;47250;-66
2022/03/04 03:32:57;;;;;;;22.23;9.48;;;-4.30;41.60;;;;;;5025012;28;46448;-67
2022/03/04 03:35:23;;;;;;;15.73;8.98;;;-4.30;41.70;;;;;;5027220;28;46544;-67
2022/03/04 03:37:49;;;;;;;17.40;9.00;;;-4.30;41.80;;;;;;5027201;28;46483;-67
2022/03/04 03:40:15;;;;;;;19.07;9.30;;;-4.30;41.90;;;;;;5024861;28;46686;-66
2022/03/04 03:42:41;;;;;;;20.63;9.45;;;-4.40;41.90;;;;;;5024815;28;46462;-68
2022/03/04 03:45:08;;;;;;;19.00;9.60;;;-4.40;42.00;;;;;;5032996;28;46347;-66
2022/03/04 03:47:34;;;;;;;18.60;9.55;;;-4.40;43.20;;;;;;5030185;28;46405;-66
2022/03/04 03:50:00;;;;;;;19.10;9.70;;;-4.40;41.90;;;;;;5031230;28;45828;-66
2022/03/04 03:52:26;;;;;;;19.00;9.63;;;-4.40;42.00;;;;;;5030590;28;46359;-67
2022/03/04 03:54:52;;;;;;;22.40;10.25;;;-4.40;42.00;;;;;;5026592;28;46485;-67
2022/03/04 03:57:18;;;;;;;22.42;10.48;;;-4.40;42.00;;;;;;5029680;28;47124;-65
2022/03/04 03:59:44;;;;;;;21.90;10.87;;;-4.40;42.10;;;;;;5030606;28;46065;-67
2022/03/04 04:02:09;;;;;;;24.77;12.40;;;-4.50;42.10;;;;;;5031703;28;46446;-66
2022/03/04 04:04:35;;;;;;;19.30;9.83;;;-4.40;42.20;;;;;;5036129;28;46397;-66
2022/03/04 04:07:05;;;;;;;21.60;10.53;;;-4.40;42.30;;;;;;5036187;28;46426;-65
2022/03/04 04:09:31;;;;;;;18.60;10.00;;;-4.50;42.20;;;;;;5033697;28;46334;-68
2022/03/04 04:11:57;;;;;;;22.35;10.52;;;-4.50;42.30;;;;;;5032682;28;46363;-65
2022/03/04 04:14:22;;;;;;;24.10;10.90;;;-4.40;42.30;;;;;;5032279;28;46495;-67
2022/03/04 04:16:48;;;;;;;20.03;9.60;;;-4.50;42.20;;;;;;5034014;28;47855;-69
2022/03/04 04:19:14;;;;;;;19.43;10.40;;;-4.50;42.20;;;;;;5033527;28;46391;-65
2022/03/04 04:21:39;;;;;;;28.07;11.10;;;-4.50;43.60;;;;;;5029939;28;46461;-69
2022/03/04 04:24:05;;;;;;;23.40;11.50;;;-4.50;42.40;;;;;;5039293;28;46403;-67
2022/03/04 04:26:31;;;;;;;22.05;10.02;;;-4.50;42.60;;;;;;5034545;28;46730;-65
2022/03/04 04:28:58;;;;;;;17.45;9.80;;;-4.60;42.60;;;;;;5032981;28;45999;-67
2022/03/04 04:31:24;;;;;;;22.48;10.38;;;-4.60;42.70;;;;;;5033479;28;46513;-66
2022/03/04 04:33:50;;;;;;;20.35;10.63;;;-4.70;42.80;;;;;;5037033;28;46536;-67
2022/03/04 04:36:16;;;;;;;19.87;10.10;;;-4.70;42.70;;;;;;5037181;28;46354;-68
2022/03/04 04:38:41;;;;;;;27.42;10.68;;;-4.70;42.90;;;;;;5037408;28;46418;-68
2022/03/04 04:41:07;;;;;;;22.13;10.90;;;-4.70;42.90;;;;;;5031226;28;46358;-66
2022/03/04 04:43:33;;;;;;;19.65;9.65;;;-4.70;42.90;;;;;;5032540;28;46311;-68
2022/03/04 04:45:59;;;;;;;30.42;9.80;;;-4.80;42.80;;;;;;5033621;28;46364;-67
2022/03/04 04:48:25;;;;;;;19.37;10.07;;;-4.80;42.90;;;;;;5038523;28;46601;-69
2022/03/04 04:50:51;;;;;;;20.17;9.93;;;-4.80;43.10;;;;;;5033478;28;46565;-66
2022/03/04 04:53:16;;;;;;;16.90;9.30;;;-4.90;43.20;;;;;;5033550;28;46421;-65
2022/03/04 04:55:42;;;;;;;17.90;9.10;;;-4.90;43.20;;;;;;5033670;28;46356;-67
2022/03/04 04:58:08;;;;;;;18.65;9.10;;;-4.90;43.20;;;;;;5034522;28;46400;-66
2022/03/04 05:00:34;;;;;;;18.53;9.70;;;-4.90;43.30;;;;;;5030330;28;46381;-69
2022/03/04 05:03:00;;;;;;;17.20;9.20;;;-4.90;43.50;;;;;;5027993;28;46461;-66
2022/03/04 05:05:25;;;;;;;17.67;8.97;;;-5.00;43.30;;;;;;5033877;28;46386;-69
2022/03/04 05:07:51;;;;;;;17.17;9.17;;;-5.00;43.40;;;;;;5038589;28;46415;-65
2022/03/04 05:10:16;;;;;;;16.97;8.93;;;-5.00;43.50;;;;;;5038238;28;46334;-66
2022/03/04 05:12:42;;;;;;;16.17;9.03;;;-5.00;44.70;;;;;;5033683;28;46001;-67
2022/03/04 05:15:08;;;;;;;13.97;8.47;;;-5.00;43.60;;;;;;5033323;28;47497;-67
2022/03/04 05:17:34;;;;;;;22.75;9.60;;;-5.00;43.60;;;;;;5032779;28;46361;-67
2022/03/04 05:19:59;;;;;;;23.53;10.90;;;-5.10;43.70;;;;;;5034153;28;46369;-67
2022/03/04 05:22:25;;;;;;;19.57;9.57;;;-5.10;43.60;;;;;;5028951;28;46377;-66
2022/03/04 05:24:51;;;;;;;18.20;8.80;;;-5.10;43.60;;;;;;5029123;28;46453;-64
2022/03/04 05:27:16;;;;;;;21.43;9.43;;;-5.10;43.60;;;;;;5025464;28;46382;-65
2022/03/04 05:29:42;;;;;;;21.60;9.17;;;-5.10;43.60;;;;;;5025806;28;46592;-65
2022/03/04 05:32:08;;;;;;;21.80;10.83;;;-5.10;43.50;;;;;;5027103;28;46581;-64
2022/03/04 05:34:34;;;;;;;20.17;10.10;;;-5.10;43.50;;;;;;5038135;28;46118;-67
2022/03/04 05:37:00;;;;;;;22.65;10.55;;;-5.10;43.50;;;;;;5034266;28;46441;-66
2022/03/04 05:39:26;;;;;;;23.77;12.35;;;-5.10;43.60;;;;;;5036517;28;46608;-65
2022/03/04 05:41:51;;;;;;;23.03;10.17;;;-5.10;43.50;;;;;;5036889;28;45932;-67
2022/03/04 05:44:17;;;;;;;23.43;10.40;;;-5.10;43.60;;;;;;5032610;28;46337;-69
2022/03/04 05:46:43;;;;;;;18.90;10.20;;;-5.10;43.60;;;;;;5030878;28;46448;-66
2022/03/04 05:49:09;;;;;;;21.73;10.13;;;-5.10;43.60;;;;;;5033370;28;46436;-66
2022/03/04 05:51:35;;;;;;;20.87;8.90;;;-5.10;43.70;;;;;;5033611;28;46619;-67
2022/03/04 05:54:00;;;;;;;21.07;9.53;;;-5.10;43.60;;;;;;5029420;28;46234;-64
2022/03/04 05:56:26;;;;;;;19.53;10.57;;;-5.10;43.70;;;;;;5031098;28;46322;-69
2022/03/04 05:58:51;;;;;;;18.40;8.67;;;-5.10;43.70;;;;;;5034928;28;45843;-66
2022/03/04 06:01:17;;;;;;;21.40;9.57;;;-5.10;43.70;;;;;;5030401;28;46632;-68
2022/03/04 06:03:43;;;;;;;18.90;9.37;;;-5.10;43.80;;;;;;5035995;28;46352;-67
2022/03/04 06:06:13;;;;;;;17.55;9.02;;;-5.10;43.70;;;;;;5034941;28;46584;-65
2022/03/04 06:08:39;;;;;;;18.20;9.30;;;-5.10;43.80;;;;;;5031976;28;46320;-69
2022/03/04 06:11:08;;;;;;;20.13;9.60;;;-5.10;43.80;;;;;;5030560;28;46481;-66
2022/03/04 06:13:37;;;;;;;19.38;9.00;;;-5.10;43.80;;;;;;5036838;28;46414;-67
2022/03/04 06:16:03;;;;;;;22.65;10.65;;;-5.00;43.80;;;;;;5033122;28;45907;-65
2022/03/04 06:18:29;;;;;;;20.17;9.95;;;-5.00;43.80;;;;;;5034773;28;46324;-65
2022/03/04 06:20:54;;;;;;;16.77;9.20;;;-4.90;43.70;;;;;;5034178;28;46516;-66
2022/03/04 06:23:21;;;;;;;19.17;9.70;;;-4.90;43.70;;;;;;5036022;28;46182;-68
2022/03/04 06:25:46;;;;;;;17.95;8.95;;;-4.90;43.60;;;;;;5031605;28;46397;-65
2022/03/04 06:28:12;;;;;;;17.83;9.10;;;-4.80;43.60;;;;;;5030293;28;46459;-67
2022/03/04 06:30:38;;;;;;;14.30;8.17;;;-4.80;43.60;;;;;;5028358;28;46835;-64
2022/03/04 06:35:50;;;;;;;18.02;9.50;;;-4.70;43.60;;;;;;5031690;28;46448;-67
2022/03/04 06:38:17;;;;;;;26.60;9.47;;;-4.60;43.70;;;;;;5029224;28;46380;-67
2022/03/04 06:40:43;;;;;;;19.80;10.05;;;-4.50;43.40;;;;;;5028050;28;46403;-70
2022/03/04 06:43:09;;;;;;;18.87;9.40;;;-4.40;43.40;;;;;;5036574;28;46255;-66
2022/03/04 06:45:36;;;;;;;16.52;9.45;;;-4.30;43.30;;;;;;5032917;28;46629;-66
2022/03/04 06:48:02;;;;;;;18.60;9.07;;;-4.20;43.30;;;;;;5033793;28;46403;-69
2022/03/04 06:50:28;;;;;;;21.90;9.57;;;-4.00;43.30;;;;;;5033951;28;46654;-68
2022/03/04 06:52:55;;;;;;;17.33;9.77;;;-3.80;43.20;;;;;;5030121;28;46460;-67
2022/03/04 06:55:21;;;;;;;20.70;10.55;;;-3.70;43.00;;;;;;5033570;28;46567;-66
2022/03/04 06:57:50;;;;;;;23.97;10.20;;;-3.50;43.00;;;;;;5031860;28;46633;-66
2022/03/04 07:00:15;;;;;;;18.27;9.32;;;-3.30;42.90;;;;;;5032022;28;46263;-68
2022/03/04 07:02:41;;;;;;;23.23;11.47;;;-3.10;42.80;;;;;;5024959;28;46472;-66
2022/03/04 07:05:08;;;;;;;22.13;12.20;;;-2.90;42.60;;;;;;5032702;28;46585;-65
2022/03/04 07:07:34;;;;;;;20.90;10.35;;;-2.80;42.30;;;;;;5026258;28;46439;-66
2022/03/04 07:09:59;;;;;;;26.70;12.93;;;-2.50;41.90;;;;;;5031958;28;46508;-66
2022/03/04 07:12:25;;;;;;;26.27;12.50;;;-2.40;42.10;;;;;;5030322;28;47204;-66
2022/03/04 07:14:51;;;;;;;26.97;13.30;;;-2.20;42.20;;;;;;5028654;28;46586;-69
2022/03/04 07:17:18;;;;;;;28.45;13.50;;;-2.00;42.30;;;;;;5029287;28;46470;-66
2022/03/04 07:19:43;;;;;;;26.23;13.05;;;-1.80;42.50;;;;;;5031583;28;46843;-70
2022/03/04 07:22:09;;;;;;;28.43;13.33;;;-1.70;42.60;;;;;;5029573;28;46344;-66
2022/03/04 07:24:35;;;;;;;41.03;14.70;;;-1.50;42.40;;;;;;5028649;28;46414;-67
2022/03/04 07:27:01;;;;;;;35.33;18.73;;;-1.40;42.30;;;;;;5030249;28;46673;-65
2022/03/04 07:29:27;;;;;;;31.45;16.42;;;-1.30;43.00;;;;;;5029451;28;46432;-65
2022/03/04 07:31:53;;;;;;;32.40;14.97;;;-1.10;43.20;;;;;;5036478;28;47032;-67
2022/03/04 07:34:23;;;;;;;34.47;14.65;;;-0.90;43.30;;;;;;5034029;28;46704;-65
2022/03/04 07:36:49;;;;;;;34.75;14.50;;;-0.70;43.50;;;;;;5028370;28;46450;-64
2022/03/04 07:39:15;;;;;;;26.90;14.07;;;-0.60;43.50;;;;;;5029625;28;46410;-66
2022/03/04 07:41:40;;;;;;;33.75;15.10;;;-0.40;43.80;;;;;;5028197;28;46690;-65
2022/03/04 07:44:07;;;;;;;26.47;12.87;;;-0.30;43.50;;;;;;5028132;28;46420;-65
2022/03/04 07:46:33;;;;;;;24.13;12.80;;;-0.20;43.60;;;;;;5023973;28;46353;-66
2022/03/04 07:48:59;;;;;;;27.73;12.00;;;-0.10;43.30;;;;;;5024895;28;46335;-66
2022/03/04 07:51:24;;;;;;;26.27;12.20;;;-0.10;43.50;;;;;;5024232;28;46462;-67
2022/03/04 07:53:50;;;;;;;22.73;11.57;;;0.00;43.70;;;;;;5033967;28;46334;-65
2022/03/04 07:56:15;;;;;;;29.27;12.03;;;0.20;43.30;;;;;;5030410;28;46396;-65
2022/03/04 07:58:41;;;;;;;36.67;12.27;;;0.20;43.20;;;;;;5031338;28;46239;-65
2022/03/04 08:01:08;;;;;;;25.40;11.77;;;0.30;43.20;;;;;;5031407;28;46443;-68
2022/03/04 08:03:34;;;;;;;26.25;12.02;;;0.50;43.10;;;;;;5028382;28;46450;-66
2022/03/04 08:06:00;;;;;;;23.97;11.57;;;0.60;43.50;;;;;;5031713;28;46661;-65
2022/03/04 08:08:25;;;;;;;30.83;12.37;;;0.60;42.70;;;;;;5028601;28;46758;-68
2022/03/04 08:10:51;;;;;;;26.90;13.30;;;0.70;42.70;;;;;;5026858;28;46472;-69
2022/03/04 08:13:17;;;;;;;22.53;11.57;;;0.90;42.70;;;;;;5026288;28;46445;-66
2022/03/04 08:15:43;;;;;;;25.60;11.50;;;0.90;42.60;;;;;;5022904;28;46438;-65
2022/03/04 08:18:08;;;;;;;23.77;11.52;;;1.10;42.20;;;;;;5024898;28;46434;-66
2022/03/04 08:20:34;;;;;;;38.80;17.07;;;1.30;42.10;;;;;;5027410;28;47318;-67
2022/03/04 08:23:00;;;;;;;201.07;53.03;;;1.20;42.00;;;;;;5030500;28;46478;-69
2022/03/04 08:25:25;;;;;;;46.77;20.30;;;1.20;42.10;;;;;;5027411;28;46369;-67
2022/03/04 08:27:52;;;;;;;26.90;13.43;;;1.40;41.90;;;;;;5028075;28;46442;-66
2022/03/04 08:30:18;;;;;;;67.20;23.38;;;1.40;41.60;;;;;;5033007;28;46410;-69
2022/03/04 08:32:44;;;;;;;25.50;11.67;;;1.60;41.60;;;;;;5029541;28;46524;-68
2022/03/04 08:35:09;;;;;;;40.90;17.83;;;1.60;41.10;;;;;;5030178;28;46438;-66
2022/03/04 08:37:36;;;;;;;20.20;10.20;;;1.80;40.70;;;;;;5031630;28;46641;-65
2022/03/04 08:40:04;;;;;;;25.52;12.00;;;2.10;39.40;;;;;;5024818;28;46381;-66
2022/03/04 08:42:30;;;;;;;26.70;11.38;;;2.00;39.20;;;;;;5029252;28;46852;-66
2022/03/04 08:44:55;;;;;;;20.33;11.53;;;2.10;39.00;;;;;;5031826;28;45883;-66
2022/03/04 08:47:21;;;;;;;19.90;11.23;;;2.20;38.70;;;;;;5027477;28;46618;-65
2022/03/04 08:49:47;;;;;;;20.97;10.80;;;2.50;38.60;;;;;;5031010;28;46313;-65
2022/03/04 08:52:12;;;;;;;23.73;12.13;;;2.40;38.10;;;;;;5032050;28;46362;-66
2022/03/04 08:54:38;;;;;;;22.50;12.13;;;2.50;37.20;;;;;;5033805;28;46356;-67
2022/03/04 08:57:04;;;;;;;24.13;11.47;;;2.60;37.10;;;;;;5029907;28;46358;-67
2022/03/04 08:59:30;;;;;;;22.33;10.00;;;2.70;37.00;;;;;;5032267;28;48269;-68
2022/03/04 09:01:56;;;;;;;20.67;10.27;;;2.80;36.10;;;;;;5033845;28;46438;-68
2022/03/04 09:04:22;;;;;;;29.05;11.40;;;2.80;34.10;;;;;;5030259;28;46331;-66
2022/03/04 09:06:48;;;;;;;25.15;11.57;;;2.80;33.30;;;;;;5033646;28;46346;-64
2022/03/04 09:09:14;;;;;;;30.40;11.30;;;2.90;33.60;;;;;;5032132;28;46474;-66
2022/03/04 09:11:41;;;;;;;26.45;12.38;;;3.00;33.40;;;;;;5031876;28;45794;-68
2022/03/04 09:14:06;;;;;;;22.35;11.82;;;3.10;32.90;;;;;;5033684;28;46436;-67
2022/03/04 09:16:32;;;;;;;20.27;10.73;;;3.10;32.50;;;;;;5033169;28;46523;-68
2022/03/04 09:18:58;;;;;;;26.97;12.47;;;3.10;30.90;;;;;;5031252;28;47499;-68
2022/03/04 09:21:23;;;;;;;21.60;11.37;;;3.10;31.10;;;;;;5031192;28;45832;-65
2022/03/04 09:23:49;;;;;;;27.27;12.50;;;3.20;31.20;;;;;;5028102;28;46534;-65
2022/03/04 09:26:15;;;;;;;25.77;11.47;;;3.30;31.50;;;;;;5031347;28;46218;-64
2022/03/04 09:28:40;;;;;;;26.00;11.90;;;3.30;30.00;;;;;;5034157;28;46402;-71
2022/03/04 09:31:06;;;;;;;27.10;12.13;;;3.40;30.60;;;;;;5030101;28;46460;-66
2022/03/04 09:33:32;;;;;;;27.20;13.77;;;3.70;31.20;;;;;;5036965;28;46335;-66
2022/03/04 09:36:00;;;;;;;33.50;12.67;;;3.60;30.50;;;;;;5035609;28;46031;-65
2022/03/04 09:38:25;;;;;;;26.67;12.27;;;3.60;30.50;;;;;;5030394;28;46909;-66
2022/03/04 09:40:51;;;;;;;25.00;13.57;;;3.70;30.90;;;;;;5031526;28;46161;-71
2022/03/04 09:43:20;;;;;;;27.97;13.60;;;3.80;30.60;;;;;;5034463;28;46271;-68
2022/03/04 09:45:48;;;;;;;28.10;12.27;;;3.80;30.10;;;;;;5040133;28;46717;-68
2022/03/04 09:48:16;;;;;;;24.17;12.43;;;3.90;29.90;;;;;;5034669;28;46416;-69
2022/03/04 09:50:47;;;;;;;30.42;13.00;;;3.90;30.00;;;;;;5030383;28;46381;-68
2022/03/04 09:53:13;;;;;;;25.80;13.55;;;4.10;29.90;;;;;;5030706;28;46446;-67
2022/03/04 09:55:40;;;;;;;27.63;12.57;;;4.20;30.00;;;;;;5033189;28;46508;-65
2022/03/04 09:58:10;;;;;;;22.87;11.60;;;4.20;29.20;;;;;;5032652;28;46058;-65
2022/03/04 10:00:36;;;;;;;23.10;12.35;;;4.20;28.80;;;;;;5028983;28;46495;-65
2022/03/04 10:03:02;;;;;;;29.92;12.88;;;4.20;29.10;;;;;;5031469;28;46286;-66
2022/03/04 10:05:28;;;;;;;22.30;11.70;;;4.30;29.30;;;;;;5031869;28;46379;-65
2022/03/04 10:07:53;;;;;;;26.40;12.00;;;4.40;29.10;;;;;;5034135;28;47216;-66
2022/03/04 10:10:22;;;;;;;27.53;11.87;;;4.50;28.70;;;;;;5028587;28;46437;-68
2022/03/04 10:12:52;;;;;;;24.73;13.73;;;4.50;28.30;;;;;;5030934;28;46469;-65
2022/03/04 10:15:19;;;;;;;24.70;11.43;;;4.50;28.60;;;;;;5032516;28;46375;-65
2022/03/04 10:17:56;;;;;;;26.60;13.93;;;4.40;28.40;;;;;;5036453;28;46958;-70
2022/03/04 10:20:41;;;;;;;26.08;13.35;;;4.40;28.00;;;;;;5029765;28;46444;-68
2022/03/04 10:23:26;;;;;;;25.90;12.73;;;4.50;27.70;;;;;;5033103;28;46376;-67
2022/03/04 10:25:55;;;;;;;23.60;11.13;;;4.50;27.80;;;;;;5030527;28;46588;-64
2022/03/04 10:28:23;;;;;;;27.23;12.83;;;4.60;27.70;;;;;;5028689;28;49398;-68
2022/03/04 10:30:51;;;;;;;28.93;13.50;;;4.70;27.30;;;;;;5028821;28;46424;-70
2022/03/04 10:33:22;;;;;;;31.43;13.60;;;4.80;26.80;;;;;;5028084;28;46449;-66
2022/03/04 10:36:08;;;;;;;20.83;11.80;;;4.70;26.80;;;;;;5027275;28;46462;-68
2022/03/04 10:38:35;;;;;;;27.30;12.10;;;4.80;27.10;;;;;;5023299;28;47570;-66
2022/03/04 10:41:19;;;;;;;24.80;13.13;;;4.90;26.90;;;;;;5034407;28;46543;-64
2022/03/04 10:43:44;;;;;;;29.20;11.30;;;5.20;26.80;;;;;;5032736;28;46563;-67
2022/03/04 10:46:10;;;;;;;21.23;12.10;;;5.20;26.10;;;;;;5036240;28;46562;-65
2022/03/04 10:48:35;;;;;;;20.50;11.37;;;5.10;25.70;;;;;;5033762;28;46736;-66
2022/03/04 10:51:05;;;;;;;23.07;12.17;;;5.20;26.00;;;;;;5027684;28;46206;-65
2022/03/04 10:53:32;;;;;;;23.93;12.60;;;5.20;25.70;;;;;;5027115;28;46240;-69
2022/03/04 10:56:02;;;;;;;28.67;11.50;;;5.40;25.40;;;;;;5027660;28;45821;-65
2022/03/04 10:58:34;;;;;;;23.40;11.33;;;5.30;25.40;;;;;;5027204;28;46950;-67
2022/03/04 11:01:19;;;;;;;23.67;11.20;;;5.30;24.90;;;;;;5030809;28;46513;-67
2022/03/04 11:03:45;;;;;;;26.00;12.07;;;5.40;24.40;;;;;;5025769;28;45785;-70
2022/03/04 11:06:16;;;;;;;25.47;10.70;;;5.50;24.20;;;;;;5027887;28;46493;-69
2022/03/04 11:08:42;;;;;;;20.87;11.53;;;5.50;23.90;;;;;;5028427;28;46403;-69
2022/03/04 11:11:08;;;;;;;22.27;11.03;;;5.60;23.90;;;;;;5024212;28;46311;-66
2022/03/04 11:13:35;;;;;;;21.47;11.40;;;5.50;23.90;;;;;;5021704;28;46620;-66
2022/03/04 11:16:02;;;;;;;20.37;10.47;;;5.60;23.90;;;;;;5028102;28;46723;-65
2022/03/04 11:18:28;;;;;;;24.50;11.53;;;5.70;24.10;;;;;;5025746;28;46393;-66
2022/03/04 11:20:57;;;;;;;31.07;11.53;;;5.80;24.00;;;;;;5026054;28;46781;-71
2022/03/04 11:23:27;;;;;;;25.47;12.37;;;5.80;23.60;;;;;;5026581;28;46448;-67
2022/03/04 11:25:59;;;;;;;26.33;12.07;;;5.80;24.10;;;;;;5024605;28;46426;-68
2022/03/04 11:28:49;;;;;;;20.10;10.40;;;5.80;24.10;;;;;;5026957;28;48286;-66
2022/03/04 11:31:20;;;;;;;23.87;10.87;;;5.90;24.20;;;;;;5026012;28;46661;-67
2022/03/04 11:33:51;;;;;;;21.60;11.73;;;6.00;25.10;;;;;;5025681;28;46387;-66
2022/03/04 11:36:27;;;;;;;19.00;10.43;;;6.00;24.20;;;;;;5024384;28;46512;-66
2022/03/04 11:38:53;;;;;;;24.47;11.53;;;6.10;23.30;;;;;;5024913;28;46399;-66
2022/03/04 11:41:47;;;;;;;21.70;11.70;;;6.10;23.50;;;;;;5028091;28;46501;-64
2022/03/04 11:44:14;;;;;;;22.83;11.30;;;6.00;23.00;;;;;;5020489;28;46525;-65
2022/03/04 11:47:10;;;;;;;23.93;11.53;;;5.90;22.50;;;;;;5029751;28;45937;-65
2022/03/04 11:49:38;;;;;;;28.67;12.30;;;6.00;22.40;;;;;;5026097;28;47370;-66
2022/03/04 11:52:10;;;;;;;27.37;12.50;;;6.00;22.50;;;;;;5027361;28;46393;-66
2022/03/04 11:54:38;;;;;;;20.63;10.83;;;6.00;22.90;;;;;;5028519;28;46606;-66
2022/03/04 11:57:28;;;;;;;17.70;9.60;;;6.20;22.80;;;;;;5024951;28;45840;-65
2022/03/04 11:59:54;;;;;;;21.77;10.87;;;6.00;21.90;;;;;;5051471;28;48099;-65
2022/03/04 12:02:26;;;;;;;24.50;12.50;;;6.00;22.50;;;;;;5020329;28;46363;-66
2022/03/04 12:05:21;;;;;;;24.40;12.40;;;6.00;22.60;;;;;;5023260;28;45927;-65
2022/03/04 12:07:47;;;;;;;28.83;12.60;;;5.90;22.70;;;;;;5024971;28;45880;-67
2022/03/04 12:10:14;;;;;;;21.67;11.93;;;5.90;22.60;;;;;;5026940;28;46158;-66
2022/03/04 12:12:59;;;;;;;23.17;12.53;;;5.90;22.90;;;;;;5025623;28;46086;-66
2022/03/04 12:15:24;;;;;;;22.93;10.97;;;6.00;23.00;;;;;;5027995;28;46551;-65
2022/03/04 12:18:03;;;;;;;23.07;11.73;;;6.00;23.10;;;;;;5026862;28;46402;-66
2022/03/04 12:20:50;;;;;;;20.27;11.23;;;6.10;23.10;;;;;;5024459;28;47061;-65
2022/03/04 12:23:27;;;;;;;21.97;11.70;;;6.20;23.10;;;;;;5027739;28;46793;-64
2022/03/04 12:25:56;;;;;;;23.40;11.00;;;6.30;22.70;;;;;;5025809;28;46383;-64
2022/03/04 12:28:43;;;;;;;21.60;10.17;;;6.30;22.70;;;;;;5026990;28;46819;-65
2022/03/04 12:31:11;;;;;;;22.47;11.43;;;6.40;22.40;;;;;;5034519;28;47254;-68
2022/03/04 12:33:40;;;;;;;21.27;11.60;;;6.40;22.50;;;;;;5031117;28;46464;-65
2022/03/04 12:36:15;;;;;;;17.60;10.17;;;6.40;21.90;;;;;;5037273;28;46518;-65
2022/03/04 12:38:42;;;;;;;22.87;9.80;;;6.30;21.60;;;;;;5032067;28;46656;-64